createdAt,value
2019-04-19T00:01:12.839Z,16.80
2019-04-19T00:03:22.355Z,16.80
2019-04-19T00:05:24.240Z,16.80
2019-04-19T00:07:28.984Z,16.70
2019-04-19T00:09:43.677Z,16.70
2019-04-19T00:11:43.928Z,16.60
2019-04-19T00:13:43.808Z,16.50
2019-04-19T00:15:47.734Z,16.50
2019-04-19T00:17:58.561Z,16.50
2019-04-19T00:20:23.407Z,16.60
2019-04-19T00:22:21.071Z,16.50
2019-04-19T00:24:08.045Z,16.40
2019-04-19T00:26:12.710Z,16.40
2019-04-19T00:28:24.371Z,16.40
2019-04-19T00:30:34.454Z,16.40
2019-04-19T00:32:38.327Z,16.50
2019-04-19T00:34:33.637Z,16.40
2019-04-19T00:36:38.434Z,16.30
2019-04-19T00:38:59.055Z,16.30
2019-04-19T00:41:11.621Z,16.30
2019-04-19T00:43:37.762Z,16.20
2019-04-19T00:45:58.693Z,16.20
2019-04-19T00:47:56.335Z,16.00
2019-04-19T00:50:02.873Z,15.90
2019-04-19T00:52:05.529Z,15.90
2019-04-19T00:54:11.900Z,15.90
2019-04-19T00:56:13.597Z,15.90
2019-04-19T00:58:18.379Z,15.90
2019-04-19T01:00:22.340Z,15.90
2019-04-19T01:02:24.523Z,15.90
2019-04-19T01:04:30.251Z,15.80
2019-04-19T01:06:42.038Z,15.90
2019-04-19T01:08:49.074Z,16.00
2019-04-19T01:10:59.262Z,16.00
2019-04-19T01:13:05.727Z,15.90
2019-04-19T01:15:05.718Z,15.90
2019-04-19T01:17:14.938Z,15.80
2019-04-19T01:19:09.859Z,15.70
2019-04-19T01:21:11.343Z,15.50
2019-04-19T01:23:17.068Z,15.40
2019-04-19T01:25:25.600Z,15.20
2019-04-19T01:27:29.521Z,15.10
2019-04-19T01:29:40.098Z,14.50
2019-04-19T01:31:37.687Z,14.80
2019-04-19T01:33:44.142Z,14.90
2019-04-19T01:35:51.040Z,14.50
2019-04-19T01:37:55.757Z,14.60
2019-04-19T01:40:13.498Z,14.70
2019-04-19T01:42:20.984Z,14.80
2019-04-19T01:44:29.986Z,14.80
2019-04-19T01:46:36.702Z,14.90
2019-04-19T01:48:39.256Z,14.60
2019-04-19T01:50:50.773Z,14.40
2019-04-19T01:52:58.081Z,14.40
2019-04-19T01:54:54.366Z,14.30
2019-04-19T01:56:55.644Z,13.80
2019-04-19T01:58:59.242Z,14.00
2019-04-19T02:01:03.274Z,14.10
2019-04-19T02:03:07.857Z,14.10
2019-04-19T02:05:16.389Z,14.20
2019-04-19T02:07:22.071Z,14.30
2019-04-19T02:09:34.765Z,14.30
2019-04-19T02:11:48.524Z,14.40
2019-04-19T02:13:53.216Z,14.30
2019-04-19T02:15:51.349Z,14.30
2019-04-19T02:17:54.288Z,14.30
2019-04-19T02:20:02.422Z,14.30
2019-04-19T02:22:11.294Z,14.20
2019-04-19T02:24:10.436Z,14.20
2019-04-19T02:26:18.391Z,14.20
2019-04-19T02:28:24.490Z,14.10
2019-04-19T02:30:34.061Z,14.10
2019-04-19T02:32:47.106Z,14.00
2019-04-19T02:35:04.451Z,14.00
2019-04-19T02:39:26.060Z,13.90
2019-04-19T02:41:30.338Z,13.90
2019-04-19T02:43:45.848Z,13.90
2019-04-19T02:45:29.029Z,13.90
2019-04-19T02:47:40.528Z,13.60
2019-04-19T02:51:55.473Z,13.50
2019-04-19T02:56:23.956Z,13.60
2019-04-19T02:58:34.042Z,13.70
2019-04-19T03:01:02.555Z,13.80
2019-04-19T03:05:15.025Z,13.70
2019-04-19T03:06:48.045Z,13.60
2019-04-19T03:08:46.594Z,13.50
2019-04-19T03:11:03.214Z,13.60
2019-04-19T03:13:12.839Z,13.70
2019-04-19T03:15:16.017Z,13.70
2019-04-19T03:17:23.326Z,13.70
2019-04-19T03:19:22.178Z,13.70
2019-04-19T03:21:33.091Z,13.70
2019-04-19T03:23:39.663Z,13.80
2019-04-19T03:25:40.396Z,13.90
2019-04-19T03:27:47.167Z,13.90
2019-04-19T03:29:45.274Z,13.80
2019-04-19T03:32:30.056Z,13.70
2019-04-19T03:36:22.019Z,13.80
2019-04-19T03:38:18.926Z,13.70
2019-04-19T03:40:40.058Z,13.70
2019-04-19T03:42:44.994Z,13.60
2019-04-19T03:44:49.271Z,13.50
2019-04-19T03:48:58.382Z,13.20
2019-04-19T03:51:09.882Z,13.10
2019-04-19T03:53:12.471Z,13.10
2019-04-19T03:55:21.495Z,13.10
2019-04-19T03:57:24.904Z,13.20
2019-04-19T03:59:16.209Z,13.20
2019-04-19T04:01:21.363Z,13.20
2019-04-19T04:03:31.256Z,13.10
2019-04-19T04:05:36.750Z,13.10
2019-04-19T04:07:37.123Z,13.00
2019-04-19T04:09:49.753Z,13.10
2019-04-19T04:12:02.302Z,13.10
2019-04-19T04:14:14.938Z,13.00
2019-04-19T04:16:20.635Z,12.90
2019-04-19T04:18:15.522Z,12.70
2019-04-19T04:20:19.899Z,12.80
2019-04-19T04:22:29.532Z,12.70
2019-04-19T04:24:36.230Z,12.70
2019-04-19T04:26:47.454Z,12.70
2019-04-19T04:28:52.747Z,12.70
2019-04-19T04:30:56.132Z,12.80
2019-04-19T04:33:04.639Z,12.70
2019-04-19T04:35:13.694Z,12.70
2019-04-19T04:37:20.389Z,12.70
2019-04-19T04:39:09.319Z,12.70
2019-04-19T04:41:20.099Z,12.80
2019-04-19T04:43:32.333Z,12.70
2019-04-19T04:45:57.694Z,12.90
2019-04-19T04:48:07.829Z,12.80
2019-04-19T04:50:27.424Z,12.80
2019-04-19T04:52:28.521Z,12.70
2019-04-19T04:54:27.169Z,12.60
2019-04-19T04:56:49.866Z,12.50
2019-04-19T04:58:44.043Z,12.50
2019-04-19T05:00:55.349Z,12.50
2019-04-19T05:03:06.558Z,12.60
2019-04-19T05:05:15.141Z,12.60
2019-04-19T05:07:25.703Z,12.70
2019-04-19T05:09:28.140Z,12.70
2019-04-19T05:11:31.594Z,12.80
2019-04-19T05:13:39.503Z,12.90
2019-04-19T05:15:43.306Z,12.90
2019-04-19T05:17:53.916Z,12.80
2019-04-19T05:19:56.408Z,13.00
2019-04-19T05:22:00.697Z,13.00
2019-04-19T05:24:09.336Z,13.10
2019-04-19T05:26:26.702Z,13.10
2019-04-19T05:28:18.850Z,13.20
2019-04-19T05:30:04.491Z,13.30
2019-04-19T05:32:17.640Z,13.40
2019-04-19T05:34:32.305Z,13.40
2019-04-19T05:36:41.433Z,13.40
2019-04-19T05:38:53.923Z,13.40
2019-04-19T05:40:50.070Z,13.40
2019-04-19T05:43:02.201Z,13.40
2019-04-19T05:45:26.136Z,13.30
2019-04-19T05:47:18.630Z,13.50
2019-04-19T05:49:19.984Z,13.60
2019-04-19T05:51:38.666Z,13.60
2019-04-19T05:53:30.920Z,13.60
2019-04-19T05:55:26.042Z,13.80
2019-04-19T05:57:49.021Z,13.90
2019-04-19T05:59:48.257Z,14.10
2019-04-19T06:01:55.104Z,14.20
2019-04-19T06:04:07.602Z,14.30
2019-04-19T06:06:19.914Z,14.40
2019-04-19T06:08:09.466Z,14.50
2019-04-19T06:10:06.433Z,14.60
2019-04-19T06:12:13.508Z,14.60
2019-04-19T06:14:38.837Z,14.70
2019-04-19T06:16:34.980Z,14.90
2019-04-19T06:18:36.035Z,15.00
2019-04-19T06:20:50.003Z,15.10
2019-04-19T06:23:01.047Z,15.20
2019-04-19T06:24:55.613Z,15.30
2019-04-19T06:27:13.379Z,15.50
2019-04-19T06:29:10.093Z,15.60
2019-04-19T06:31:24.210Z,15.70
2019-04-19T06:33:25.149Z,15.70
2019-04-19T06:35:23.896Z,15.80
2019-04-19T06:37:24.117Z,15.90
2019-04-19T06:39:22.857Z,16.00
2019-04-19T06:41:28.653Z,15.90
2019-04-19T06:43:43.334Z,16.10
2019-04-19T06:45:53.063Z,16.20
2019-04-19T06:47:49.899Z,16.10
2019-04-19T06:49:52.147Z,16.00
2019-04-19T06:52:01.420Z,16.00
2019-04-19T06:54:04.042Z,15.70
2019-04-19T06:56:14.461Z,15.80
2019-04-19T06:58:16.015Z,15.70
2019-04-19T07:00:30.555Z,15.60
2019-04-19T07:02:22.287Z,15.60
2019-04-19T07:04:26.113Z,15.50
2019-04-19T07:06:45.544Z,15.20
2019-04-19T07:11:10.081Z,15.40
2019-04-19T07:13:04.898Z,15.70
2019-04-19T07:15:12.342Z,15.50
2019-04-19T07:17:15.442Z,15.80
2019-04-19T07:19:24.487Z,15.80
2019-04-19T07:21:32.030Z,15.70
2019-04-19T07:23:32.498Z,15.80
2019-04-19T07:25:42.440Z,15.80
2019-04-19T07:27:36.828Z,15.80
2019-04-19T07:29:29.957Z,16.20
2019-04-19T07:31:36.348Z,16.30
2019-04-19T07:33:52.897Z,16.50
2019-04-19T07:36:07.854Z,16.00
2019-04-19T07:38:19.722Z,15.70
2019-04-19T07:40:20.522Z,15.90
2019-04-19T07:42:22.501Z,16.20
2019-04-19T07:44:32.018Z,16.60
2019-04-19T07:46:45.500Z,16.90
2019-04-19T07:48:34.417Z,16.90
2019-04-19T07:50:48.666Z,17.10
2019-04-19T07:52:53.014Z,17.20
2019-04-19T07:54:55.292Z,17.10
2019-04-19T07:57:17.119Z,16.80
2019-04-19T07:59:45.561Z,17.10
2019-04-19T08:05:52.832Z,17.30
2019-04-19T08:08:00.791Z,17.60
2019-04-19T08:14:05.484Z,17.40
2019-04-19T08:16:29.120Z,17.40
2019-04-19T08:18:20.885Z,17.00
2019-04-19T08:28:26.826Z,17.30
2019-04-19T08:30:33.892Z,17.30
2019-04-19T08:32:28.202Z,17.40
2019-04-19T08:34:32.851Z,17.30
2019-04-19T08:36:46.168Z,17.10
2019-04-19T08:39:04.168Z,17.20
2019-04-19T08:43:15.999Z,17.50
2019-04-19T08:45:11.001Z,17.30
2019-04-19T08:47:35.166Z,17.70
2019-04-19T08:49:51.964Z,18.00
2019-04-19T08:52:08.348Z,18.10
2019-04-19T08:54:32.893Z,18.10
2019-04-19T08:56:27.594Z,18.30
2019-04-19T08:58:38.884Z,18.30
2019-04-19T09:00:57.765Z,18.40
2019-04-19T09:02:45.209Z,18.20
2019-04-19T09:04:57.747Z,18.10
2019-04-19T09:07:39.868Z,18.30
2019-04-19T09:09:02.550Z,18.20
2019-04-19T09:11:14.848Z,17.50
2019-04-19T09:13:27.901Z,18.00
2019-04-19T09:15:23.911Z,18.10
2019-04-19T09:17:39.027Z,18.40
2019-04-19T09:20:00.845Z,18.50
2019-04-19T09:21:38.112Z,18.60
2019-04-19T09:23:40.416Z,18.80
2019-04-19T09:25:48.780Z,18.90
2019-04-19T09:28:11.394Z,19.10
2019-04-19T09:30:11.533Z,19.00
2019-04-19T09:32:06.620Z,18.70
2019-04-19T09:34:08.978Z,18.90
2019-04-19T09:36:13.714Z,18.40
2019-04-19T09:38:31.022Z,19.00
2019-04-19T09:40:31.667Z,19.10
2019-04-19T09:42:44.740Z,19.30
2019-04-19T09:44:41.523Z,19.30
2019-04-19T09:46:42.503Z,19.30
2019-04-19T09:49:06.077Z,19.40
2019-04-19T09:51:10.039Z,19.20
2019-04-19T09:53:25.824Z,19.20
2019-04-19T09:55:26.896Z,19.40
2019-04-19T09:57:27.948Z,19.00
2019-04-19T09:59:25.383Z,18.90
2019-04-19T10:01:21.176Z,19.00
2019-04-19T10:03:36.220Z,19.40
2019-04-19T10:05:31.110Z,19.60
2019-04-19T10:07:35.063Z,19.70
2019-04-19T10:09:38.778Z,19.90
2019-04-19T10:11:43.242Z,19.80
2019-04-19T10:13:48.072Z,19.40
2019-04-19T10:15:54.398Z,19.50
2019-04-19T10:17:58.596Z,19.60
2019-04-19T10:20:02.783Z,19.90
2019-04-19T10:22:08.398Z,20.00
2019-04-19T10:24:16.226Z,19.30
2019-04-19T10:26:22.251Z,19.90
2019-04-19T10:28:26.930Z,19.70
2019-04-19T10:30:50.526Z,20.30
2019-04-19T10:32:56.150Z,19.80
2019-04-19T10:35:01.042Z,19.90
2019-04-19T10:37:05.929Z,20.10
2019-04-19T10:39:11.953Z,20.40
2019-04-19T10:41:15.817Z,20.30
2019-04-19T10:43:19.513Z,20.40
2019-04-19T10:45:23.859Z,20.40
2019-04-19T10:47:29.360Z,20.30
2019-04-19T10:49:40.972Z,20.30
2019-04-19T10:51:43.865Z,20.60
2019-04-19T10:53:48.628Z,20.60
2019-04-19T10:55:58.182Z,20.70
2019-04-19T10:58:03.197Z,20.80
2019-04-19T11:00:09.163Z,20.70
2019-04-19T11:02:13.831Z,20.10
2019-04-19T11:04:17.648Z,20.00
2019-04-19T11:06:23.808Z,19.90
2019-04-19T11:08:28.725Z,20.10
2019-04-19T11:10:33.544Z,20.70
2019-04-19T11:12:38.514Z,20.20
2019-04-19T11:14:42.302Z,21.00
2019-04-19T11:16:47.306Z,21.20
2019-04-19T11:18:51.213Z,20.90
2019-04-19T11:20:56.293Z,20.90
2019-04-19T11:23:00.304Z,21.10
2019-04-19T11:25:05.978Z,21.40
2019-04-19T11:27:10.797Z,21.70
2019-04-19T11:29:15.605Z,20.70
2019-04-19T11:31:27.857Z,20.90
2019-04-19T11:33:33.334Z,20.50
2019-04-19T11:35:41.483Z,21.20
2019-04-19T11:37:45.336Z,21.50
2019-04-19T11:39:49.028Z,21.60
2019-04-19T11:41:52.689Z,21.70
2019-04-19T11:43:56.418Z,22.00
2019-04-19T11:46:00.425Z,22.20
2019-04-19T11:48:05.253Z,21.90
2019-04-19T11:50:11.675Z,21.60
2019-04-19T11:52:17.209Z,21.70
2019-04-19T11:54:20.923Z,21.70
2019-04-19T11:56:37.678Z,21.70
2019-04-19T11:58:40.337Z,21.90
2019-04-19T12:00:56.064Z,22.00
2019-04-19T12:03:02.273Z,21.30
2019-04-19T12:05:17.596Z,21.10
2019-04-19T12:07:12.598Z,21.60
2019-04-19T12:09:16.433Z,21.80
2019-04-19T12:11:22.381Z,22.00
2019-04-19T12:13:27.449Z,22.10
2019-04-19T12:15:32.926Z,22.10
2019-04-19T12:17:37.837Z,22.20
2019-04-19T12:19:50.363Z,22.60
2019-04-19T12:21:47.586Z,22.40
2019-04-19T12:23:51.340Z,22.00
2019-04-19T12:25:55.599Z,22.10
2019-04-19T12:27:59.705Z,21.40
2019-04-19T12:30:05.436Z,22.10
2019-04-19T12:32:09.560Z,22.30
2019-04-19T12:34:14.553Z,22.50
2019-04-19T12:36:19.237Z,22.50
2019-04-19T12:38:24.064Z,22.70
2019-04-19T12:40:29.719Z,22.70
2019-04-19T12:42:33.957Z,22.70
2019-04-19T12:44:39.079Z,22.90
2019-04-19T12:46:43.321Z,22.80
2019-04-19T12:48:48.212Z,22.90
2019-04-19T12:50:52.194Z,23.20
2019-04-19T12:52:57.979Z,23.20
2019-04-19T12:55:01.997Z,23.30
2019-04-19T12:57:05.809Z,23.00
2019-04-19T12:59:09.514Z,22.60
2019-04-19T13:01:15.266Z,23.00
2019-04-19T13:03:20.514Z,23.10
2019-04-19T13:05:28.230Z,22.90
2019-04-19T13:07:33.151Z,23.40
2019-04-19T13:09:37.210Z,23.50
2019-04-19T13:11:41.207Z,22.80
2019-04-19T13:13:45.897Z,22.70
2019-04-19T13:15:50.264Z,23.00
2019-04-19T13:17:54.102Z,23.20
2019-04-19T13:20:08.240Z,23.20
2019-04-19T13:22:04.614Z,23.40
2019-04-19T13:24:08.797Z,23.60
2019-04-19T13:26:13.528Z,23.50
2019-04-19T13:28:17.557Z,23.20
2019-04-19T13:30:32.962Z,23.20
2019-04-19T13:32:29.254Z,23.50
2019-04-19T13:34:33.540Z,23.40
2019-04-19T13:36:55.461Z,23.60
2019-04-19T13:39:17.261Z,23.50
2019-04-19T13:41:22.983Z,23.50
2019-04-19T13:43:26.857Z,22.70
2019-04-19T13:45:33.697Z,22.70
2019-04-19T13:47:36.514Z,22.10
2019-04-19T13:49:40.323Z,22.30
2019-04-19T13:51:44.834Z,22.30
2019-04-19T13:53:48.907Z,22.60
2019-04-19T13:55:52.766Z,22.90
2019-04-19T13:57:57.664Z,23.40
2019-04-19T14:00:04.149Z,23.60
2019-04-19T14:02:08.502Z,23.60
2019-04-19T14:04:13.544Z,23.60
2019-04-19T14:06:18.152Z,23.70
2019-04-19T14:08:21.994Z,23.70
2019-04-19T14:10:25.785Z,23.80
2019-04-19T14:12:29.470Z,23.60
2019-04-19T14:14:33.248Z,23.10
2019-04-19T14:16:38.048Z,22.60
2019-04-19T14:18:42.633Z,23.10
2019-04-19T14:20:49.379Z,22.90
2019-04-19T14:22:52.001Z,23.50
2019-04-19T14:24:55.965Z,24.00
2019-04-19T14:27:01.085Z,23.60
2019-04-19T14:29:05.550Z,23.60
2019-04-19T14:31:10.204Z,23.50
2019-04-19T14:33:14.909Z,23.70
2019-04-19T14:35:19.653Z,23.70
2019-04-19T14:37:23.458Z,24.00
2019-04-19T14:39:27.290Z,24.00
2019-04-19T14:41:31.621Z,23.10
2019-04-19T14:43:36.548Z,23.30
2019-04-19T14:45:40.518Z,23.70
2019-04-19T14:47:44.720Z,23.80
2019-04-19T14:49:49.103Z,23.60
2019-04-19T14:51:53.985Z,23.80
2019-04-19T14:53:58.177Z,23.90
2019-04-19T14:56:02.715Z,23.60
2019-04-19T14:58:06.381Z,23.40
2019-04-19T15:00:14.803Z,22.40
2019-04-19T15:02:26.899Z,21.90
2019-04-19T15:04:40.226Z,22.60
2019-04-19T15:06:43.921Z,23.50
2019-04-19T15:08:47.678Z,24.00
2019-04-19T15:10:51.417Z,23.80
2019-04-19T15:12:56.589Z,24.00
2019-04-19T15:15:00.369Z,24.20
2019-04-19T15:17:04.941Z,23.80
2019-04-19T15:19:08.818Z,23.30
2019-04-19T15:21:16.589Z,23.40
2019-04-19T15:23:18.317Z,23.70
2019-04-19T15:25:23.609Z,23.10
2019-04-19T15:27:28.643Z,22.90
2019-04-19T15:29:32.469Z,22.90
2019-04-19T15:31:36.470Z,23.60
2019-04-19T15:33:40.730Z,23.10
2019-04-19T15:35:45.662Z,22.50
2019-04-19T15:37:49.731Z,22.80
2019-04-19T15:39:53.877Z,22.80
2019-04-19T15:41:58.137Z,23.60
2019-04-19T15:44:01.910Z,23.50
2019-04-19T15:46:07.982Z,24.00
2019-04-19T15:48:14.031Z,24.40
2019-04-19T15:50:17.989Z,24.50
2019-04-19T15:52:22.011Z,24.30
2019-04-19T15:54:25.887Z,24.40
2019-04-19T15:56:30.121Z,24.50
2019-04-19T15:58:33.951Z,24.30
2019-04-19T16:01:05.930Z,23.70
2019-04-19T16:03:27.733Z,23.10
2019-04-19T16:05:33.883Z,22.90
2019-04-19T16:07:46.195Z,23.50
2019-04-19T16:10:06.973Z,23.70
2019-04-19T16:12:11.445Z,24.00
2019-04-19T16:14:15.435Z,24.10
2019-04-19T16:16:21.737Z,24.30
2019-04-19T16:18:24.672Z,24.40
2019-04-19T16:20:29.333Z,24.50
2019-04-19T16:22:34.087Z,24.10
2019-04-19T16:24:39.031Z,24.30
2019-04-19T16:26:42.910Z,24.10
2019-04-19T16:28:46.610Z,24.20
2019-04-19T16:30:50.465Z,24.40
2019-04-19T16:32:55.304Z,24.60
2019-04-19T16:34:59.449Z,24.80
2019-04-19T16:37:03.161Z,24.80
2019-04-19T16:39:07.751Z,24.70
2019-04-19T16:41:12.552Z,24.50
2019-04-19T16:43:17.448Z,24.50
2019-04-19T16:45:21.939Z,24.30
2019-04-19T16:47:26.993Z,24.00
2019-04-19T16:49:30.906Z,24.00
2019-04-19T16:51:42.380Z,24.10
2019-04-19T16:53:40.147Z,23.70
2019-04-19T16:55:43.867Z,23.60
2019-04-19T16:57:48.405Z,23.80
2019-04-19T16:59:52.243Z,23.70
2019-04-19T17:01:56.819Z,24.00
2019-04-19T17:04:01.670Z,24.10
2019-04-19T17:06:06.532Z,23.80
2019-04-19T17:08:11.487Z,24.00
2019-04-19T17:10:16.223Z,24.20
2019-04-19T17:12:20.928Z,24.00
2019-04-19T17:14:25.196Z,23.80
2019-04-19T17:16:37.594Z,23.90
2019-04-19T17:18:52.723Z,24.00
2019-04-19T17:21:03.920Z,24.00
2019-04-19T17:23:08.572Z,23.50
2019-04-19T17:25:13.123Z,23.60
2019-04-19T17:27:23.023Z,23.60
2019-04-19T17:29:22.675Z,23.60
2019-04-19T17:31:26.767Z,23.30
2019-04-19T17:33:30.438Z,23.30
2019-04-19T17:35:34.439Z,23.50
2019-04-19T17:37:38.190Z,23.50
2019-04-19T17:39:42.501Z,23.20
2019-04-19T17:41:46.309Z,22.70
2019-04-19T17:43:50.002Z,22.30
2019-04-19T17:45:54.644Z,22.80
2019-04-19T17:47:58.547Z,23.10
2019-04-19T17:50:02.716Z,23.10
2019-04-19T17:52:12.656Z,23.20
2019-04-19T17:54:18.614Z,23.20
2019-04-19T17:56:17.564Z,23.30
2019-04-19T17:58:23.448Z,23.30
2019-04-19T18:00:28.286Z,23.30
2019-04-19T18:02:32.948Z,23.20
2019-04-19T18:04:37.809Z,23.20
2019-04-19T18:06:44.345Z,23.20
2019-04-19T18:08:48.987Z,23.20
2019-04-19T18:10:55.780Z,23.20
2019-04-19T18:12:59.108Z,23.20
2019-04-19T18:15:03.636Z,23.10
2019-04-19T18:17:08.437Z,22.80
2019-04-19T18:19:16.795Z,22.80
2019-04-19T18:21:17.710Z,22.90
2019-04-19T18:23:31.655Z,22.70
2019-04-19T18:25:33.077Z,22.20
2019-04-19T18:27:32.802Z,22.50
2019-04-19T18:29:38.035Z,22.50
2019-04-19T18:31:48.859Z,22.20
2019-04-19T18:33:58.889Z,22.30
2019-04-19T18:36:03.385Z,22.40
2019-04-19T18:38:01.178Z,22.40
2019-04-19T18:40:07.520Z,22.00
2019-04-19T18:42:11.555Z,22.10
2019-04-19T18:44:22.940Z,22.20
2019-04-19T18:46:20.646Z,22.20
2019-04-19T18:48:24.338Z,22.10
2019-04-19T18:50:28.492Z,22.10
2019-04-19T18:52:42.375Z,22.10
2019-04-19T18:54:48.319Z,22.00
2019-04-19T18:56:44.438Z,21.90
2019-04-19T18:58:48.215Z,21.80
2019-04-19T19:00:54.965Z,21.70
2019-04-19T19:03:01.030Z,21.60
2019-04-19T19:05:05.624Z,21.40
2019-04-19T19:07:14.506Z,21.30
2019-04-19T19:09:16.679Z,21.30
2019-04-19T19:11:21.433Z,21.10
2019-04-19T19:13:28.718Z,21.00
2019-04-19T19:15:38.151Z,20.90
2019-04-19T19:17:36.142Z,20.70
2019-04-19T19:19:41.500Z,20.70
2019-04-19T19:21:48.847Z,20.60
2019-04-19T19:24:15.680Z,20.60
2019-04-19T19:26:10.588Z,20.50
2019-04-19T19:28:06.163Z,20.40
2019-04-19T19:30:11.131Z,20.30
2019-04-19T19:32:17.519Z,20.20
2019-04-19T19:34:25.150Z,20.10
2019-04-19T19:36:35.166Z,20.10
2019-04-19T19:38:36.294Z,20.00
2019-04-19T19:40:55.308Z,20.00
2019-04-19T19:43:07.439Z,19.60
2019-04-19T19:45:02.902Z,19.60
2019-04-19T19:47:25.109Z,19.50
2019-04-19T19:51:23.917Z,19.40
2019-04-19T19:55:39.576Z,19.30
2019-04-19T19:57:39.528Z,19.20
2019-04-19T19:59:37.742Z,19.10
2019-04-19T20:01:49.605Z,18.90
2019-04-19T20:03:46.414Z,18.90
2019-04-19T20:05:47.576Z,18.90
2019-04-19T20:07:52.027Z,18.80
2019-04-19T20:10:03.686Z,18.70
2019-04-19T20:12:07.475Z,18.60
2019-04-19T20:14:09.264Z,18.50
2019-04-19T20:16:18.996Z,18.40
2019-04-19T20:18:18.220Z,18.40
2019-04-19T20:20:28.262Z,18.40
2019-04-19T20:22:34.180Z,18.40
2019-04-19T20:24:45.930Z,18.30
2019-04-19T20:26:50.192Z,18.10
2019-04-19T20:28:45.159Z,18.00
2019-04-19T20:30:52.121Z,18.00
2019-04-19T20:32:59.205Z,17.90
2019-04-19T20:35:05.631Z,17.80
2019-04-19T20:37:08.889Z,17.70
2019-04-19T20:39:11.456Z,17.70
2019-04-19T20:41:16.418Z,17.60
2019-04-19T20:43:35.162Z,17.60
2019-04-19T20:45:34.959Z,17.70
2019-04-19T20:47:33.134Z,17.70
2019-04-19T20:49:42.838Z,17.80
2019-04-19T20:51:58.391Z,17.70
2019-04-19T20:54:03.919Z,17.60
2019-04-19T20:58:19.163Z,17.50
2019-04-19T21:00:17.172Z,17.20
2019-04-19T21:02:28.253Z,17.20
2019-04-19T21:04:27.264Z,17.20
2019-04-19T21:06:35.009Z,17.10
2019-04-19T21:08:41.484Z,17.00
2019-04-19T21:10:47.269Z,17.00
2019-04-19T21:12:47.411Z,16.90
2019-04-19T21:14:52.425Z,16.80
2019-04-19T21:17:00.111Z,16.80
2019-04-19T21:19:06.045Z,16.90
2019-04-19T21:21:11.383Z,16.90
2019-04-19T21:23:18.661Z,17.00
2019-04-19T21:25:23.097Z,17.00
2019-04-19T21:27:28.392Z,17.00
2019-04-19T21:29:32.031Z,17.10
2019-04-19T21:31:41.207Z,17.20
2019-04-19T21:33:45.017Z,17.10
2019-04-19T21:35:53.473Z,16.90
2019-04-19T21:37:51.188Z,16.90
2019-04-19T21:39:56.705Z,17.00
2019-04-19T21:42:04.353Z,17.10
2019-04-19T21:44:11.818Z,17.10
2019-04-19T21:46:14.582Z,17.10
2019-04-19T21:48:18.055Z,17.00
2019-04-19T21:50:29.569Z,16.90
2019-04-19T21:52:29.034Z,16.80
2019-04-19T21:54:32.900Z,16.80
2019-04-19T21:56:41.241Z,16.80
2019-04-19T21:58:48.376Z,16.80
2019-04-19T22:01:04.852Z,16.70
2019-04-19T22:03:05.817Z,16.80
2019-04-19T22:05:10.036Z,16.60
2019-04-19T22:07:15.019Z,16.60
2019-04-19T22:09:21.765Z,16.50
2019-04-19T22:11:24.614Z,16.60
2019-04-19T22:13:33.319Z,16.50
2019-04-19T22:15:35.816Z,16.50
2019-04-19T22:17:39.330Z,16.30
2019-04-19T22:19:43.627Z,16.30
2019-04-19T22:21:48.586Z,16.30
2019-04-19T22:23:54.721Z,16.40
2019-04-19T22:26:11.363Z,16.50
2019-04-19T22:28:05.479Z,16.40
2019-04-19T22:30:11.630Z,16.30
2019-04-19T22:32:18.971Z,16.20
2019-04-19T22:34:22.142Z,16.00
2019-04-19T22:36:30.099Z,16.00
2019-04-19T22:38:31.848Z,15.90
2019-04-19T22:40:36.656Z,15.90
2019-04-19T22:42:50.592Z,16.00
2019-04-19T22:44:45.862Z,16.00
2019-04-19T22:46:52.904Z,15.80
2019-04-19T22:49:00.224Z,15.80
2019-04-19T22:51:04.932Z,15.90
2019-04-19T22:53:05.859Z,15.90
2019-04-19T22:55:16.959Z,15.80
2019-04-19T22:57:19.607Z,15.60
2019-04-19T22:59:21.944Z,15.40
2019-04-19T23:01:28.408Z,15.40
2019-04-19T23:03:37.339Z,15.20
2019-04-19T23:05:43.626Z,15.20
2019-04-19T23:07:50.265Z,15.30
2019-04-19T23:09:50.978Z,15.40
2019-04-19T23:11:55.460Z,15.30
2019-04-19T23:13:59.312Z,15.20
2019-04-19T23:16:07.785Z,15.20
2019-04-19T23:18:13.283Z,15.30
2019-04-19T23:20:18.652Z,15.20
2019-04-19T23:22:22.795Z,15.10
2019-04-19T23:24:25.089Z,15.20
2019-04-19T23:26:49.904Z,15.20
2019-04-19T23:28:39.255Z,15.20
2019-04-19T23:30:39.658Z,15.10
2019-04-19T23:32:43.966Z,15.10
2019-04-19T23:34:51.607Z,15.10
2019-04-19T23:36:59.954Z,15.00
2019-04-19T23:39:05.271Z,14.90
2019-04-19T23:41:04.010Z,14.90
2019-04-19T23:43:08.182Z,14.80
2019-04-19T23:45:12.581Z,14.70
2019-04-19T23:47:16.372Z,14.70
2019-04-19T23:49:21.149Z,14.70
2019-04-19T23:51:25.461Z,14.60
2019-04-19T23:53:33.371Z,14.60
2019-04-19T23:55:34.618Z,14.60
2019-04-19T23:57:45.332Z,14.60
2019-04-19T23:59:50.897Z,14.50
